createdAt,value
2018-02-11T00:00:14.737Z,0
2018-02-11T00:01:24.436Z,0
2018-02-11T00:02:34.123Z,0
2018-02-11T00:03:44.068Z,0
2018-02-11T00:04:53.519Z,0
2018-02-11T00:06:03.204Z,0
2018-02-11T00:07:12.903Z,0
2018-02-11T00:08:22.859Z,0
2018-02-11T00:09:32.808Z,0
2018-02-11T00:10:42.764Z,0
2018-02-11T00:11:52.725Z,0
2018-02-11T00:13:02.673Z,0
2018-02-11T00:14:12.382Z,0
2018-02-11T00:15:22.338Z,0
2018-02-11T00:16:31.775Z,0
2018-02-11T00:17:41.463Z,0
2018-02-11T00:18:51.408Z,0
2018-02-11T00:20:01.371Z,0
2018-02-11T00:21:11.312Z,0
2018-02-11T00:22:21.253Z,0
2018-02-11T00:23:30.425Z,0
2018-02-11T00:24:40.372Z,0
2018-02-11T00:25:50.078Z,0
2018-02-11T00:26:59.764Z,0
2018-02-11T00:28:09.465Z,0
2018-02-11T00:29:19.420Z,0
2018-02-11T00:30:29.359Z,0
2018-02-11T00:31:39.042Z,0
2018-02-11T00:32:48.999Z,0
2018-02-11T00:33:58.680Z,0
2018-02-11T00:35:08.641Z,0
2018-02-11T00:36:18.598Z,0
2018-02-11T00:37:28.564Z,0
2018-02-11T00:38:37.994Z,0
2018-02-11T00:39:47.961Z,0
2018-02-11T00:40:57.653Z,0
2018-02-11T00:42:07.362Z,0
2018-02-11T00:43:17.314Z,0
2018-02-11T00:44:27.252Z,0
2018-02-11T00:45:37.212Z,0
2018-02-11T00:46:46.907Z,0
2018-02-11T00:47:56.594Z,0
2018-02-11T00:49:06.280Z,0
2018-02-11T00:50:16.224Z,0
2018-02-11T00:51:25.930Z,0
2018-02-11T00:52:35.618Z,0
2018-02-11T00:53:45.311Z,0
2018-02-11T00:54:55.258Z,0
2018-02-11T00:56:04.945Z,0
2018-02-11T00:57:14.655Z,0
2018-02-11T00:58:24.608Z,0
2018-02-11T00:59:34.063Z,0
2018-02-11T01:00:44.030Z,0
2018-02-11T01:01:53.724Z,0
2018-02-11T01:03:03.462Z,0
2018-02-11T01:04:13.422Z,0
2018-02-11T01:05:23.370Z,0
2018-02-11T01:06:33.317Z,0
2018-02-11T01:07:43.270Z,0
2018-02-11T01:08:52.966Z,0
2018-02-11T01:10:02.915Z,0
2018-02-11T01:11:12.596Z,0
2018-02-11T01:12:22.557Z,0
2018-02-11T01:13:32.240Z,0
2018-02-11T01:14:42.175Z,0
2018-02-11T01:15:52.128Z,0
2018-02-11T01:17:02.076Z,0
2018-02-11T01:18:11.770Z,0
2018-02-11T01:19:21.487Z,0
2018-02-11T01:20:31.436Z,0
2018-02-11T01:21:41.135Z,0
2018-02-11T01:22:51.084Z,0
2018-02-11T01:24:01.038Z,0
2018-02-11T01:25:10.998Z,0
2018-02-11T01:26:20.934Z,0
2018-02-11T01:27:30.356Z,0
2018-02-11T01:28:40.262Z,0
2018-02-11T01:29:50.271Z,0
2018-02-11T01:31:00.227Z,0
2018-02-11T01:32:09.922Z,0
2018-02-11T01:33:19.863Z,0
2018-02-11T01:34:29.801Z,0
2018-02-11T01:35:39.754Z,0
2018-02-11T01:36:49.735Z,0
2018-02-11T01:37:59.685Z,0
2018-02-11T01:39:09.379Z,0
2018-02-11T01:40:19.079Z,0
2018-02-11T01:41:29.031Z,0
2018-02-11T01:42:38.980Z,0
2018-02-11T01:43:48.672Z,0
2018-02-11T01:44:58.361Z,0
2018-02-11T01:46:08.073Z,0
2018-02-11T01:47:18.016Z,0
2018-02-11T01:48:27.970Z,0
2018-02-11T01:49:37.676Z,0
2018-02-11T01:50:47.625Z,0
2018-02-11T01:51:57.324Z,0
2018-02-11T01:53:07.277Z,0
2018-02-11T01:54:17.225Z,0
2018-02-11T01:55:27.164Z,0
2018-02-11T01:56:37.120Z,0
2018-02-11T01:57:47.055Z,0
2018-02-11T01:58:56.746Z,0
2018-02-11T02:00:06.440Z,0
2018-02-11T02:01:16.405Z,0
2018-02-11T02:02:26.108Z,0
2018-02-11T02:03:36.051Z,0
2018-02-11T02:04:45.751Z,0
2018-02-11T02:05:55.700Z,0
2018-02-11T02:07:05.400Z,0
2018-02-11T02:08:15.350Z,0
2018-02-11T02:09:25.044Z,0
2018-02-11T02:10:34.733Z,0
2018-02-11T02:11:44.729Z,0
2018-02-11T02:12:54.417Z,0
2018-02-11T02:14:04.380Z,0
2018-02-11T02:15:14.078Z,0
2018-02-11T02:16:23.753Z,0
2018-02-11T02:17:33.702Z,0
2018-02-11T02:18:43.642Z,0
2018-02-11T02:19:53.590Z,0
2018-02-11T02:21:03.530Z,0
2018-02-11T02:22:13.475Z,0
2018-02-11T02:23:23.415Z,0
2018-02-11T02:24:33.370Z,0
2018-02-11T02:25:43.327Z,0
2018-02-11T02:26:52.775Z,0
2018-02-11T02:28:02.715Z,0
2018-02-11T02:29:12.658Z,0
2018-02-11T02:30:22.598Z,0
2018-02-11T02:31:32.548Z,0
2018-02-11T02:32:42.234Z,0
2018-02-11T02:33:52.176Z,0
2018-02-11T02:35:01.872Z,0
2018-02-11T02:36:11.831Z,0
2018-02-11T02:37:21.789Z,0
2018-02-11T02:38:31.219Z,0
2018-02-11T02:39:41.172Z,0
2018-02-11T02:40:51.269Z,0
2018-02-11T02:42:01.224Z,0
2018-02-11T02:43:11.164Z,0
2018-02-11T02:44:21.117Z,0
2018-02-11T02:45:30.809Z,0
2018-02-11T02:46:40.762Z,0
2018-02-11T02:47:50.456Z,0
2018-02-11T02:49:00.144Z,0
2018-02-11T02:50:10.121Z,0
2018-02-11T02:51:20.088Z,0
2018-02-11T02:52:30.026Z,0
2018-02-11T02:53:39.720Z,0
2018-02-11T02:54:49.672Z,0
2018-02-11T02:55:59.619Z,0
2018-02-11T02:57:09.330Z,0
2018-02-11T02:58:19.061Z,0
2018-02-11T02:59:28.780Z,0
2018-02-11T03:00:38.772Z,0
2018-02-11T03:01:48.701Z,0
2018-02-11T03:02:58.154Z,0
2018-02-11T03:04:08.095Z,0
2018-02-11T03:05:17.782Z,0
2018-02-11T03:06:27.469Z,0
2018-02-11T03:07:37.149Z,0
2018-02-11T03:08:46.839Z,0
2018-02-11T03:09:56.775Z,0
2018-02-11T03:11:06.715Z,0
2018-02-11T03:12:16.407Z,0
2018-02-11T03:20:06.778Z,0
2018-02-11T03:21:16.732Z,0
2018-02-11T03:22:26.673Z,0
2018-02-11T03:23:36.618Z,0
2018-02-11T03:24:46.557Z,0
2018-02-11T03:25:56.497Z,0
2018-02-11T03:27:06.175Z,0
2018-02-11T03:28:16.121Z,0
2018-02-11T03:29:25.811Z,0
2018-02-11T03:30:35.494Z,0
2018-02-11T03:31:45.452Z,0
2018-02-11T03:32:55.402Z,0
2018-02-11T03:34:05.106Z,0
2018-02-11T03:35:15.057Z,0
2018-02-11T03:36:25.003Z,0
2018-02-11T03:37:34.961Z,0
2018-02-11T03:38:44.900Z,0
2018-02-11T03:39:54.590Z,0
2018-02-11T03:41:04.535Z,0
2018-02-11T03:42:14.227Z,0
2018-02-11T03:43:23.397Z,0
2018-02-11T03:44:33.357Z,0
2018-02-11T03:45:43.320Z,0
2018-02-11T03:46:53.267Z,0
2018-02-11T03:48:03.217Z,0
2018-02-11T03:49:13.164Z,0
2018-02-11T03:50:23.117Z,0
2018-02-11T03:51:33.058Z,0
2018-02-11T03:52:43.010Z,0
2018-02-11T03:53:52.704Z,0
2018-02-11T03:55:02.647Z,0
2018-02-11T03:56:12.598Z,0
2018-02-11T03:57:22.333Z,0
2018-02-11T03:58:32.285Z,0
2018-02-11T03:59:42.220Z,0
2018-02-11T04:00:52.159Z,0
2018-02-11T04:02:02.105Z,0
2018-02-11T04:03:12.053Z,0
2018-02-11T04:04:21.481Z,0
2018-02-11T04:05:31.176Z,0
2018-02-11T04:06:41.126Z,0
2018-02-11T04:07:51.066Z,0
2018-02-11T04:09:00.749Z,0
2018-02-11T04:10:10.685Z,0
2018-02-11T04:11:20.434Z,0
2018-02-11T04:12:30.136Z,0
2018-02-11T04:13:40.086Z,0
2018-02-11T04:14:49.773Z,0
2018-02-11T04:15:59.733Z,0
2018-02-11T04:17:09.431Z,0
2018-02-11T04:18:19.122Z,0
2018-02-11T04:19:29.067Z,0
2018-02-11T04:20:38.790Z,0
2018-02-11T04:21:48.220Z,0
2018-02-11T04:22:57.915Z,0
2018-02-11T04:24:07.859Z,0
2018-02-11T04:25:17.552Z,0
2018-02-11T04:26:27.592Z,0
2018-02-11T04:27:37.540Z,0
2018-02-11T04:28:47.487Z,0
2018-02-11T04:29:57.434Z,0
2018-02-11T04:31:06.878Z,0
2018-02-11T04:32:16.555Z,0
2018-02-11T04:33:26.252Z,0
2018-02-11T04:34:35.935Z,0
2018-02-11T04:35:45.882Z,0
2018-02-11T04:36:55.839Z,0
2018-02-11T04:38:05.775Z,0
2018-02-11T04:39:15.964Z,0
2018-02-11T04:40:25.651Z,0
2018-02-11T04:41:35.589Z,0
2018-02-11T04:42:45.285Z,0
2018-02-11T04:43:55.028Z,0
2018-02-11T04:45:04.724Z,0
2018-02-11T04:46:14.660Z,0
2018-02-11T04:47:24.347Z,0
2018-02-11T04:48:34.286Z,0
2018-02-11T04:49:44.224Z,0
2018-02-11T04:50:53.909Z,0
2018-02-11T04:52:03.847Z,0
2018-02-11T04:53:13.790Z,0
2018-02-11T04:54:23.730Z,0
2018-02-11T04:55:33.419Z,0
2018-02-11T04:56:43.112Z,0
2018-02-11T04:57:53.060Z,0
2018-02-11T04:59:02.490Z,0
2018-02-11T05:00:12.436Z,0
2018-02-11T05:01:22.378Z,0
2018-02-11T05:02:32.307Z,0
2018-02-11T05:03:42.253Z,0
2018-02-11T05:04:52.201Z,0
2018-02-11T05:06:02.161Z,0
2018-02-11T05:07:11.897Z,0
2018-02-11T05:08:21.839Z,0
2018-02-11T05:09:31.519Z,0
2018-02-11T05:10:41.458Z,0
2018-02-11T05:11:51.143Z,0
2018-02-11T05:13:00.320Z,0
2018-02-11T05:14:10.505Z,0
2018-02-11T05:15:20.190Z,0
2018-02-11T05:16:30.133Z,0
2018-02-11T05:17:40.071Z,0
2018-02-11T05:18:49.757Z,0
2018-02-11T05:19:59.697Z,0
2018-02-11T05:21:09.657Z,0
2018-02-11T05:22:19.595Z,0
2018-02-11T05:23:29.529Z,0
2018-02-11T05:24:38.954Z,0
2018-02-11T05:25:48.894Z,0
2018-02-11T05:26:58.883Z,0
2018-02-11T05:28:08.823Z,0
2018-02-11T05:29:18.510Z,0
2018-02-11T05:30:28.449Z,0
2018-02-11T05:31:38.390Z,0
2018-02-11T05:32:48.340Z,0
2018-02-11T05:33:58.276Z,0
2018-02-11T05:35:08.226Z,0
2018-02-11T05:36:18.168Z,0
2018-02-11T05:37:27.857Z,0
2018-02-11T05:38:37.798Z,0
2018-02-11T05:39:47.737Z,0
2018-02-11T05:40:57.672Z,0
2018-02-11T05:42:07.610Z,0
2018-02-11T05:43:17.553Z,0
2018-02-11T05:44:27.498Z,0
2018-02-11T05:45:37.432Z,0
2018-02-11T05:46:47.372Z,0
2018-02-11T05:47:57.311Z,0
2018-02-11T05:49:07.000Z,0
2018-02-11T05:50:16.956Z,0
2018-02-11T05:51:26.889Z,0
2018-02-11T05:52:36.578Z,0
2018-02-11T05:53:46.515Z,0
2018-02-11T05:54:56.462Z,0
2018-02-11T05:56:06.139Z,0
2018-02-11T05:57:15.570Z,0
2018-02-11T05:58:25.515Z,0
2018-02-11T05:59:35.454Z,0
2018-02-11T06:00:45.135Z,0
2018-02-11T06:01:54.561Z,0
2018-02-11T06:03:04.573Z,0
2018-02-11T06:04:13.485Z,0
2018-02-11T06:05:23.427Z,0
2018-02-11T06:06:33.115Z,0
2018-02-11T06:07:43.071Z,0
2018-02-11T06:08:53.017Z,0
2018-02-11T06:10:02.964Z,0
2018-02-11T06:11:12.910Z,0
2018-02-11T06:12:22.842Z,0
2018-02-11T06:13:32.533Z,0
2018-02-11T06:14:42.483Z,0
2018-02-11T06:15:52.420Z,0
2018-02-11T06:17:02.114Z,0
2018-02-11T06:18:11.844Z,0
2018-02-11T06:19:21.791Z,0
2018-02-11T06:20:31.728Z,0
2018-02-11T06:21:41.831Z,0
2018-02-11T06:22:51.773Z,5
2018-02-11T06:24:01.712Z,5
2018-02-11T06:25:10.883Z,5
2018-02-11T06:26:20.825Z,5
2018-02-11T06:27:30.508Z,5
2018-02-11T06:28:40.453Z,5
2018-02-11T06:29:50.390Z,5
2018-02-11T06:31:00.323Z,10
2018-02-11T06:32:10.286Z,10
2018-02-11T06:33:20.246Z,10
2018-02-11T06:34:29.928Z,10
2018-02-11T06:35:39.872Z,15
2018-02-11T06:36:49.824Z,15
2018-02-11T06:37:59.789Z,15
2018-02-11T06:39:09.763Z,15
2018-02-11T06:40:19.459Z,20
2018-02-11T06:41:29.509Z,20
2018-02-11T06:42:39.198Z,20
2018-02-11T06:43:49.142Z,25
2018-02-11T06:44:59.076Z,25
2018-02-11T06:46:09.015Z,25
2018-02-11T06:47:18.438Z,30
2018-02-11T06:48:28.377Z,30
2018-02-11T06:49:38.328Z,30
2018-02-11T06:50:48.024Z,35
2018-02-11T06:51:57.972Z,35
2018-02-11T06:53:07.946Z,35
2018-02-11T06:54:17.895Z,40
2018-02-11T06:55:27.837Z,40
2018-02-11T06:56:37.788Z,40
2018-02-11T06:57:47.791Z,45
2018-02-11T06:58:57.741Z,45
2018-02-11T07:00:07.728Z,45
2018-02-11T07:01:17.685Z,50
2018-02-11T07:02:27.637Z,50
2018-02-11T07:03:37.586Z,50
2018-02-11T07:04:47.524Z,55
2018-02-11T07:05:57.474Z,55
2018-02-11T07:07:07.172Z,60
2018-02-11T07:08:17.128Z,60
2018-02-11T07:09:27.067Z,65
2018-02-11T07:10:37.001Z,65
2018-02-11T07:11:46.943Z,70
2018-02-11T07:12:56.656Z,75
2018-02-11T07:14:06.094Z,80
2018-02-11T07:15:16.031Z,85
2018-02-11T07:16:25.969Z,95
2018-02-11T07:17:35.922Z,100
2018-02-11T07:18:45.867Z,110
2018-02-11T07:19:55.833Z,120
2018-02-11T07:21:05.772Z,125
2018-02-11T07:22:15.455Z,135
2018-02-11T07:23:25.424Z,145
2018-02-11T07:24:35.365Z,155
2018-02-11T07:25:45.308Z,160
2018-02-11T07:26:55.256Z,165
2018-02-11T07:28:04.953Z,170
2018-02-11T07:29:14.893Z,175
2018-02-11T07:30:24.833Z,185
2018-02-11T07:31:34.781Z,190
2018-02-11T07:32:44.467Z,200
2018-02-11T07:33:54.426Z,205
2018-02-11T07:35:04.124Z,210
2018-02-11T07:36:14.087Z,220
2018-02-11T07:37:24.030Z,230
2018-02-11T07:38:33.758Z,240
2018-02-11T07:39:43.701Z,245
2018-02-11T07:40:53.386Z,260
2018-02-11T07:42:03.382Z,270
2018-02-11T07:43:13.326Z,275
2018-02-11T07:44:23.317Z,285
2018-02-11T07:45:33.259Z,285
2018-02-11T07:46:43.226Z,280
2018-02-11T07:47:53.172Z,270
2018-02-11T07:49:03.134Z,265
2018-02-11T07:50:13.087Z,260
2018-02-11T07:51:22.773Z,250
2018-02-11T07:52:32.713Z,225
2018-02-11T07:53:42.684Z,220
2018-02-11T07:54:52.627Z,205
2018-02-11T07:56:02.340Z,185
2018-02-11T07:57:11.779Z,180
2018-02-11T07:58:21.527Z,175
2018-02-11T07:59:31.464Z,175
2018-02-11T08:00:41.427Z,170
2018-02-11T08:01:51.378Z,170
2018-02-11T08:03:01.321Z,175
2018-02-11T08:04:11.267Z,180
2018-02-11T08:05:21.233Z,185
2018-02-11T08:06:30.917Z,195
2018-02-11T08:07:40.618Z,205
2018-02-11T08:08:50.066Z,210
2018-02-11T08:09:59.760Z,215
2018-02-11T08:11:09.785Z,220
2018-02-11T08:12:19.475Z,225
2018-02-11T08:13:29.217Z,230
2018-02-11T08:14:39.155Z,235
2018-02-11T08:15:49.107Z,235
2018-02-11T08:16:58.797Z,240
2018-02-11T08:18:08.751Z,245
2018-02-11T08:19:18.445Z,245
2018-02-11T08:20:28.400Z,250
2018-02-11T08:21:38.359Z,255
2018-02-11T08:22:48.047Z,270
2018-02-11T08:23:58.013Z,265
2018-02-11T08:25:07.973Z,270
2018-02-11T08:26:17.933Z,275
2018-02-11T08:27:27.889Z,285
2018-02-11T08:28:37.317Z,280
2018-02-11T08:29:47.005Z,280
2018-02-11T08:30:56.701Z,285
2018-02-11T08:32:06.442Z,290
2018-02-11T08:33:16.133Z,290
2018-02-11T08:34:26.095Z,290
2018-02-11T08:35:36.047Z,300
2018-02-11T08:36:45.995Z,295
2018-02-11T08:37:55.954Z,305
2018-02-11T08:39:05.898Z,310
2018-02-11T08:40:15.590Z,340
2018-02-11T08:41:25.538Z,360
2018-02-11T08:42:35.480Z,370
2018-02-11T08:43:45.450Z,410
2018-02-11T08:44:55.156Z,415
2018-02-11T08:46:04.593Z,410
2018-02-11T08:47:14.293Z,400
2018-02-11T08:48:24.240Z,405
2018-02-11T08:49:34.181Z,420
2018-02-11T08:50:44.129Z,435
2018-02-11T08:51:54.102Z,445
2018-02-11T08:53:04.054Z,465
2018-02-11T08:54:14.004Z,470
2018-02-11T08:55:23.966Z,490
2018-02-11T08:56:33.912Z,575
2018-02-11T08:57:43.599Z,495
2018-02-11T08:58:53.551Z,395
2018-02-11T09:00:03.246Z,355
2018-02-11T09:01:12.940Z,345
2018-02-11T09:02:22.890Z,340
2018-02-11T09:03:32.332Z,350
2018-02-11T09:04:42.013Z,350
2018-02-11T09:05:51.968Z,355
2018-02-11T09:07:01.922Z,365
2018-02-11T09:08:11.877Z,375
2018-02-11T09:09:21.316Z,385
2018-02-11T09:10:31.306Z,400
2018-02-11T09:11:40.994Z,415
2018-02-11T09:12:50.493Z,425
2018-02-11T09:14:00.488Z,450
2018-02-11T09:15:10.206Z,445
2018-02-11T09:16:20.167Z,430
2018-02-11T09:17:30.123Z,430
2018-02-11T09:18:39.819Z,440
2018-02-11T09:19:49.774Z,470
2018-02-11T09:20:59.471Z,470
2018-02-11T09:22:09.693Z,475
2018-02-11T09:23:19.640Z,465
2018-02-11T09:24:29.586Z,480
2018-02-11T09:25:39.017Z,590
2018-02-11T09:26:48.962Z,600
2018-02-11T09:27:58.923Z,575
2018-02-11T09:29:08.874Z,510
2018-02-11T09:30:18.844Z,490
2018-02-11T09:31:28.802Z,465
2018-02-11T09:32:38.751Z,440
2018-02-11T09:33:48.699Z,440
2018-02-11T09:34:58.141Z,460
2018-02-11T09:36:08.090Z,480
2018-02-11T09:37:18.049Z,490
2018-02-11T09:38:27.998Z,495
2018-02-11T09:39:37.716Z,495
2018-02-11T09:40:47.675Z,490
2018-02-11T09:41:56.856Z,475
2018-02-11T09:43:06.814Z,470
2018-02-11T09:44:16.773Z,465
2018-02-11T09:45:26.726Z,460
2018-02-11T09:46:36.171Z,455
2018-02-11T09:47:45.858Z,450
2018-02-11T09:48:55.824Z,435
2018-02-11T09:50:05.536Z,420
2018-02-11T09:51:15.481Z,410
2018-02-11T09:52:25.425Z,390
2018-02-11T09:53:35.389Z,375
2018-02-11T09:54:45.084Z,365
2018-02-11T09:55:55.045Z,350
2018-02-11T09:57:05.049Z,340
2018-02-11T09:58:15.000Z,335
2018-02-11T09:59:24.695Z,330
2018-02-11T10:00:34.639Z,320
2018-02-11T10:01:44.327Z,320
2018-02-11T10:02:54.280Z,320
2018-02-11T10:04:04.237Z,320
2018-02-11T10:05:14.185Z,330
2018-02-11T10:06:24.155Z,345
2018-02-11T10:07:34.126Z,370
2018-02-11T10:08:43.837Z,380
2018-02-11T10:09:53.803Z,395
2018-02-11T10:11:03.747Z,415
2018-02-11T10:12:13.438Z,430
2018-02-11T10:13:23.396Z,445
2018-02-11T10:14:33.356Z,455
2018-02-11T10:15:43.061Z,465
2018-02-11T10:16:53.024Z,485
2018-02-11T10:18:02.971Z,505
2018-02-11T10:19:12.725Z,550
2018-02-11T10:20:22.427Z,615
2018-02-11T10:21:32.381Z,675
2018-02-11T10:22:42.333Z,760
2018-02-11T10:23:52.019Z,895
2018-02-11T10:25:01.973Z,1065
2018-02-11T10:26:11.683Z,1210
2018-02-11T10:27:21.387Z,1180
2018-02-11T10:28:31.089Z,1025
2018-02-11T10:29:41.063Z,1160
2018-02-11T10:30:51.026Z,1275
2018-02-11T10:32:00.989Z,940
2018-02-11T10:33:10.678Z,1075
2018-02-11T10:34:20.646Z,1035
2018-02-11T10:35:30.592Z,940
2018-02-11T10:36:40.541Z,1045
2018-02-11T10:37:50.508Z,1100
2018-02-11T10:39:00.471Z,1170
2018-02-11T10:40:10.427Z,1115
2018-02-11T10:41:20.385Z,920
2018-02-11T10:42:30.074Z,825
2018-02-11T10:43:39.786Z,875
2018-02-11T10:44:49.467Z,775
2018-02-11T10:45:59.434Z,760
2018-02-11T10:47:09.137Z,760
2018-02-11T10:48:18.861Z,750
2018-02-11T10:49:28.566Z,760
2018-02-11T10:50:38.313Z,835
2018-02-11T10:51:48.266Z,775
2018-02-11T10:52:57.984Z,720
2018-02-11T10:54:07.937Z,680
2018-02-11T10:55:17.889Z,635
2018-02-11T10:56:27.592Z,625
2018-02-11T10:57:37.557Z,630
2018-02-11T10:58:47.010Z,640
2018-02-11T10:59:56.699Z,665
2018-02-11T11:01:06.417Z,630
2018-02-11T11:02:16.362Z,600
2018-02-11T11:03:26.339Z,570
2018-02-11T11:04:36.303Z,545
2018-02-11T11:05:46.269Z,520
2018-02-11T11:06:56.245Z,490
2018-02-11T11:08:06.206Z,460
2018-02-11T11:09:15.918Z,405
2018-02-11T11:10:25.858Z,335
2018-02-11T11:11:35.557Z,275
2018-02-11T11:12:45.536Z,255
2018-02-11T11:13:55.489Z,235
2018-02-11T11:15:05.190Z,230
2018-02-11T11:16:14.895Z,255
2018-02-11T11:17:24.849Z,270
2018-02-11T11:18:34.811Z,280
2018-02-11T11:19:44.491Z,290
2018-02-11T11:20:53.685Z,325
2018-02-11T11:22:03.445Z,360
2018-02-11T11:23:13.138Z,345
2018-02-11T11:24:23.101Z,320
2018-02-11T11:25:32.813Z,310
2018-02-11T11:26:42.759Z,310
2018-02-11T11:27:52.457Z,285
2018-02-11T11:29:02.162Z,285
2018-02-11T11:30:12.187Z,285
2018-02-11T11:31:21.880Z,305
2018-02-11T11:32:31.837Z,320
2018-02-11T11:33:42.048Z,335
2018-02-11T11:34:52.022Z,350
2018-02-11T11:36:01.998Z,345
2018-02-11T11:37:11.962Z,365
2018-02-11T11:38:21.930Z,395
2018-02-11T11:39:31.366Z,385
2018-02-11T11:40:41.063Z,395
2018-02-11T11:41:50.782Z,405
2018-02-11T11:43:00.741Z,365
2018-02-11T11:44:10.702Z,345
2018-02-11T11:45:20.394Z,330
2018-02-11T11:46:30.345Z,325
2018-02-11T11:47:40.049Z,345
2018-02-11T11:48:49.994Z,365
2018-02-11T11:49:59.687Z,380
2018-02-11T11:51:09.454Z,415
2018-02-11T11:52:19.147Z,470
2018-02-11T11:53:28.865Z,505
2018-02-11T11:54:38.569Z,550
2018-02-11T11:55:48.270Z,615
2018-02-11T11:56:57.964Z,605
2018-02-11T11:58:07.655Z,560
2018-02-11T11:59:17.625Z,570
2018-02-11T12:00:27.323Z,550
2018-02-11T12:01:37.267Z,565
2018-02-11T12:02:47.217Z,575
2018-02-11T12:03:57.175Z,535
2018-02-11T12:05:07.144Z,475
2018-02-11T12:06:17.092Z,415
2018-02-11T12:07:27.060Z,360
2018-02-11T12:08:36.761Z,330
2018-02-11T12:09:46.460Z,305
2018-02-11T12:10:56.413Z,285
2018-02-11T12:12:06.392Z,270
2018-02-11T12:13:16.347Z,265
2018-02-11T12:14:26.040Z,255
2018-02-11T12:15:36.019Z,245
2018-02-11T12:16:45.971Z,225
2018-02-11T12:17:55.923Z,220
2018-02-11T12:19:05.884Z,215
2018-02-11T12:20:15.591Z,210
2018-02-11T12:21:25.308Z,215
2018-02-11T12:22:35.272Z,210
2018-02-11T12:23:45.222Z,220
2018-02-11T12:24:55.204Z,205
2018-02-11T12:26:04.973Z,210
2018-02-11T12:27:14.663Z,210
2018-02-11T12:28:24.635Z,215
2018-02-11T12:29:34.067Z,225
2018-02-11T12:30:44.016Z,235
2018-02-11T12:31:53.969Z,250
2018-02-11T12:33:03.680Z,260
2018-02-11T12:34:13.625Z,230
2018-02-11T12:35:23.585Z,245
2018-02-11T12:36:33.544Z,250
2018-02-11T12:37:43.509Z,225
2018-02-11T12:38:52.941Z,205
2018-02-11T12:40:02.902Z,210
2018-02-11T12:41:12.868Z,195
2018-02-11T12:42:22.821Z,170
2018-02-11T12:43:32.497Z,165
2018-02-11T12:44:42.503Z,165
2018-02-11T12:45:52.239Z,180
2018-02-11T12:47:01.686Z,195
2018-02-11T12:48:11.643Z,240
2018-02-11T12:49:21.609Z,295
2018-02-11T12:50:31.331Z,265
2018-02-11T12:51:41.284Z,225
2018-02-11T12:52:50.716Z,225
2018-02-11T12:54:00.670Z,195
2018-02-11T12:55:10.373Z,220
2018-02-11T12:56:20.318Z,215
2018-02-11T12:57:30.273Z,210
2018-02-11T12:58:40.225Z,215
2018-02-11T12:59:50.190Z,205
2018-02-11T13:01:00.157Z,225
2018-02-11T13:02:09.861Z,225
2018-02-11T13:03:19.825Z,215
2018-02-11T13:04:29.792Z,205
2018-02-11T13:05:39.483Z,210
2018-02-11T13:06:49.434Z,205
2018-02-11T13:07:59.503Z,220
2018-02-11T13:09:09.255Z,210
2018-02-11T13:10:19.221Z,185
2018-02-11T13:11:29.180Z,165
2018-02-11T13:12:39.130Z,150
2018-02-11T13:13:49.085Z,145
2018-02-11T13:14:58.525Z,155
2018-02-11T13:16:08.476Z,160
2018-02-11T13:17:18.422Z,180
2018-02-11T13:18:28.364Z,200
2018-02-11T13:19:38.327Z,205
2018-02-11T13:20:48.277Z,195
2018-02-11T13:21:58.233Z,195
2018-02-11T13:23:08.177Z,190
2018-02-11T13:24:18.129Z,205
2018-02-11T13:25:28.092Z,220
2018-02-11T13:26:38.042Z,215
2018-02-11T13:27:48.014Z,180
2018-02-11T13:28:57.976Z,175
2018-02-11T13:30:07.672Z,170
2018-02-11T13:31:17.624Z,165
2018-02-11T13:32:27.582Z,175
2018-02-11T13:33:37.281Z,195
2018-02-11T13:34:47.239Z,215
2018-02-11T13:35:57.195Z,210
2018-02-11T13:37:06.904Z,205
2018-02-11T13:38:16.645Z,185
2018-02-11T13:39:26.051Z,175
2018-02-11T13:40:35.750Z,190
2018-02-11T13:41:45.865Z,175
2018-02-11T13:42:55.564Z,120
2018-02-11T13:44:05.558Z,125
2018-02-11T13:45:15.530Z,135
2018-02-11T13:46:25.481Z,135
2018-02-11T13:47:35.424Z,125
2018-02-11T13:48:45.387Z,150
2018-02-11T13:49:55.348Z,155
2018-02-11T13:51:05.060Z,155
2018-02-11T13:52:14.766Z,155
2018-02-11T13:53:24.745Z,140
2018-02-11T13:54:34.189Z,125
2018-02-11T13:55:43.882Z,120
2018-02-11T13:56:53.567Z,115
2018-02-11T13:58:03.519Z,115
2018-02-11T13:59:13.465Z,120
2018-02-11T14:00:23.431Z,120
2018-02-11T14:01:33.396Z,115
2018-02-11T14:02:43.362Z,90
2018-02-11T14:03:53.329Z,85
2018-02-11T14:05:03.286Z,85
2018-02-11T14:06:13.244Z,75
2018-02-11T14:07:23.196Z,80
2018-02-11T14:08:33.395Z,75
2018-02-11T14:09:43.349Z,80
2018-02-11T14:10:53.057Z,85
2018-02-11T14:12:02.761Z,95
2018-02-11T14:13:12.793Z,90
2018-02-11T14:14:22.751Z,100
2018-02-11T14:15:32.716Z,85
2018-02-11T14:16:42.672Z,95
2018-02-11T14:17:52.368Z,100
2018-02-11T14:19:02.337Z,80
2018-02-11T14:20:12.281Z,70
2018-02-11T14:21:22.224Z,65
2018-02-11T14:22:31.912Z,75
2018-02-11T14:23:41.875Z,75
2018-02-11T14:24:51.873Z,75
2018-02-11T14:26:01.622Z,75
2018-02-11T14:27:11.361Z,75
2018-02-11T14:28:21.060Z,80
2018-02-11T14:29:31.014Z,70
2018-02-11T14:30:40.988Z,75
2018-02-11T14:31:50.959Z,60
2018-02-11T14:33:00.924Z,60
2018-02-11T14:34:10.614Z,55
2018-02-11T14:35:20.820Z,60
2018-02-11T14:36:30.778Z,60
2018-02-11T14:37:40.786Z,60
2018-02-11T14:38:50.475Z,50
2018-02-11T14:39:59.655Z,55
2018-02-11T14:41:09.641Z,60
2018-02-11T14:42:19.602Z,55
2018-02-11T14:43:29.545Z,65
2018-02-11T14:44:39.236Z,65
2018-02-11T14:45:49.189Z,70
2018-02-11T14:46:58.884Z,60
2018-02-11T14:48:08.824Z,50
2018-02-11T14:49:18.772Z,45
2018-02-11T14:50:28.738Z,55
2018-02-11T14:51:38.435Z,50
2018-02-11T14:52:48.377Z,50
2018-02-11T14:53:58.336Z,45
2018-02-11T14:55:08.032Z,40
2018-02-11T14:56:17.727Z,40
2018-02-11T14:57:27.424Z,40
2018-02-11T14:58:37.120Z,30
2018-02-11T14:59:46.807Z,30
2018-02-11T15:00:56.768Z,35
2018-02-11T15:02:06.461Z,35
2018-02-11T15:03:16.161Z,30
2018-02-11T15:04:26.126Z,30
2018-02-11T15:05:35.825Z,25
2018-02-11T15:06:45.520Z,25
2018-02-11T15:07:55.467Z,30
2018-02-11T15:09:05.422Z,30
2018-02-11T15:10:15.367Z,35
2018-02-11T15:11:25.333Z,30
2018-02-11T15:12:35.036Z,25
2018-02-11T15:13:45.003Z,20
2018-02-11T15:14:54.969Z,20
2018-02-11T15:16:04.652Z,20
2018-02-11T15:17:14.085Z,20
2018-02-11T15:18:23.802Z,30
2018-02-11T15:19:33.800Z,35
2018-02-11T15:20:43.756Z,35
2018-02-11T15:21:53.501Z,35
2018-02-11T15:23:03.229Z,30
2018-02-11T15:24:12.939Z,25
2018-02-11T15:25:22.633Z,25
2018-02-11T15:26:32.339Z,15
2018-02-11T15:27:42.081Z,15
2018-02-11T15:28:52.035Z,20
2018-02-11T15:30:01.995Z,20
2018-02-11T15:31:11.705Z,20
2018-02-11T15:32:21.402Z,20
2018-02-11T15:33:31.386Z,20
2018-02-11T15:34:41.078Z,20
2018-02-11T15:35:51.049Z,20
2018-02-11T15:37:00.233Z,20
2018-02-11T15:38:09.934Z,15
2018-02-11T15:39:19.625Z,15
2018-02-11T15:40:29.632Z,20
2018-02-11T15:41:39.584Z,20
2018-02-11T15:42:49.537Z,15
2018-02-11T15:43:59.494Z,15
2018-02-11T15:45:09.186Z,15
2018-02-11T15:46:19.149Z,15
2018-02-11T15:47:28.589Z,15
2018-02-11T15:48:38.547Z,15
2018-02-11T15:49:48.492Z,15
2018-02-11T15:50:58.523Z,15
2018-02-11T15:52:07.976Z,15
2018-02-11T15:53:17.939Z,10
2018-02-11T15:54:27.906Z,10
2018-02-11T15:55:37.853Z,10
2018-02-11T15:56:47.276Z,10
2018-02-11T15:57:56.712Z,10
2018-02-11T15:59:06.416Z,10
2018-02-11T16:00:16.120Z,10
2018-02-11T16:01:26.067Z,10
2018-02-11T16:02:35.757Z,10
2018-02-11T16:03:45.923Z,10
2018-02-11T16:04:55.879Z,10
2018-02-11T16:06:05.832Z,5
2018-02-11T16:07:15.784Z,5
2018-02-11T16:08:25.724Z,5
2018-02-11T16:09:35.421Z,5
2018-02-11T16:10:45.385Z,5
2018-02-11T16:11:55.339Z,5
2018-02-11T16:13:05.307Z,5
2018-02-11T16:14:15.267Z,5
2018-02-11T16:15:25.288Z,5
2018-02-11T16:16:34.987Z,0
2018-02-11T16:17:44.948Z,0
2018-02-11T16:18:54.925Z,0
2018-02-11T16:20:04.878Z,0
2018-02-11T16:21:14.578Z,0
2018-02-11T16:22:24.543Z,0
2018-02-11T16:23:34.494Z,0
2018-02-11T16:24:44.556Z,0
2018-02-11T16:25:54.254Z,0
2018-02-11T16:27:04.251Z,0
2018-02-11T16:28:14.217Z,0
2018-02-11T16:29:23.913Z,0
2018-02-11T16:30:33.626Z,0
2018-02-11T16:31:43.587Z,0
2018-02-11T16:32:53.355Z,0
2018-02-11T16:34:03.049Z,0
2018-02-11T16:35:12.997Z,0
2018-02-11T16:36:22.692Z,0
2018-02-11T16:37:32.648Z,0
2018-02-11T16:38:42.100Z,0
2018-02-11T16:39:52.042Z,0
2018-02-11T16:41:02.012Z,0
2018-02-11T16:42:11.724Z,0